createdAt,value
2022-10-25T00:13:09.849Z,980.3
2022-10-25T00:27:44.095Z,980.3
2022-10-25T00:42:18.654Z,980.3
2022-10-25T00:56:51.229Z,980.4
2022-10-25T01:11:25.493Z,980.5
2022-10-25T01:25:58.144Z,980.5
2022-10-25T01:40:29.970Z,980.5
2022-10-25T01:55:04.216Z,980.7
2022-10-25T02:09:38.030Z,980.8
2022-10-25T02:24:17.484Z,980.7
2022-10-25T02:38:48.475Z,980.7
2022-10-25T02:53:25.318Z,980.8
2022-10-25T03:07:58.077Z,980.8
2022-10-25T03:22:31.641Z,980.9
2022-10-25T03:37:04.872Z,980.9
2022-10-25T03:51:36.905Z,980.9
2022-10-25T04:06:09.026Z,981
2022-10-25T04:20:43.506Z,981
2022-10-25T04:35:18.011Z,981.3
2022-10-25T04:49:51.452Z,981.3
2022-10-25T05:04:23.686Z,981.6
2022-10-25T05:18:59.049Z,981.7
2022-10-25T05:33:31.458Z,981.9
2022-10-25T05:48:04.766Z,982
2022-10-25T06:02:39.692Z,982
2022-10-25T06:17:13.491Z,982.1
2022-10-25T06:31:47.537Z,982.3
2022-10-25T06:46:21.970Z,982.5
2022-10-25T07:00:57.612Z,982.7
2022-10-25T07:15:32.337Z,982.8
2022-10-25T07:30:05.832Z,983
2022-10-25T07:44:40.820Z,983.1
2022-10-25T07:59:14.746Z,983.2
2022-10-25T08:13:49.434Z,983.3
2022-10-25T08:28:24.479Z,983.4
2022-10-25T08:42:59.883Z,983.3
2022-10-25T08:57:33.608Z,983.4
2022-10-25T09:12:08.675Z,983.5
2022-10-25T09:26:43.607Z,983.5
2022-10-25T09:41:18.819Z,983.7
2022-10-25T09:55:53.526Z,983.8
2022-10-25T10:10:26.801Z,984
2022-10-25T10:25:01.568Z,984.1
2022-10-25T10:39:36.208Z,984.2
2022-10-25T10:54:10.186Z,984.1
2022-10-25T11:08:46.561Z,984.2
2022-10-25T11:23:26.225Z,984.2
2022-10-25T11:38:02.778Z,984.2
2022-10-25T11:52:33.158Z,984.2
2022-10-25T12:07:07.187Z,984.2
2022-10-25T12:21:41.318Z,984.1
2022-10-25T12:36:15.900Z,984.2
2022-10-25T12:50:50.106Z,984.1
2022-10-25T13:05:27.048Z,984
2022-10-25T13:19:59.354Z,984
2022-10-25T13:34:32.889Z,984
2022-10-25T13:49:07.020Z,984.1
2022-10-25T14:03:40.875Z,983.9
2022-10-25T14:18:22.627Z,984
2022-10-25T14:32:52.268Z,984
2022-10-25T14:47:26.876Z,983.9
2022-10-25T15:02:01.528Z,983.8
2022-10-25T15:16:35.213Z,983.8
2022-10-25T15:31:19.467Z,983.6
2022-10-25T15:45:55.085Z,983.7
2022-10-25T16:00:28.651Z,983.7
2022-10-25T16:14:57.821Z,983.6
2022-10-25T16:29:36.839Z,983.6
2022-10-25T16:44:13.300Z,983.5
2022-10-25T16:58:43.083Z,983.6
2022-10-25T17:13:16.188Z,983.5
2022-10-25T17:27:49.972Z,983.5
2022-10-25T17:42:23.358Z,983.4
2022-10-25T17:56:57.527Z,983.4
2022-10-25T18:11:29.614Z,983.4
2022-10-25T18:26:03.825Z,983.3
2022-10-25T18:40:37.919Z,983.4
2022-10-25T18:55:16.236Z,983.4
2022-10-25T19:09:48.015Z,983.4
2022-10-25T19:24:16.091Z,983.3
2022-10-25T19:38:50.281Z,983.3
2022-10-25T19:53:27.682Z,983.2
2022-10-25T20:08:02.509Z,983.3
2022-10-25T20:22:33.121Z,983.3
2022-10-25T20:37:05.211Z,983.3
2022-10-25T20:51:37.557Z,983.2
2022-10-25T21:06:10.647Z,983.2
2022-10-25T21:20:44.463Z,983.1
2022-10-25T21:35:20.188Z,982.9
2022-10-25T21:49:53.200Z,982.9
2022-10-25T22:04:25.931Z,982.9
2022-10-25T22:19:00.189Z,982.8
2022-10-25T22:33:35.398Z,982.7
2022-10-25T22:48:09.106Z,982.7
2022-10-25T23:02:43.867Z,982.7
2022-10-25T23:17:17.365Z,982.7
2022-10-25T23:31:51.729Z,982.6
2022-10-25T23:46:24.653Z,982.5
